sensor_id;sensor_type;location;lat;lon;timestamp;P1;durP1;ratioP1;P2;durP2;ratioP2
53875;SDS011;39789;53.216;5.624;2024-03-02T00:01:04;3.50;;;2.70;;
53875;SDS011;39789;53.216;5.624;2024-03-02T00:03:31;4.13;;;2.92;;
53875;SDS011;39789;53.216;5.624;2024-03-02T00:05:57;3.28;;;2.95;;
53875;SDS011;39789;53.216;5.624;2024-03-02T00:08:23;3.17;;;2.83;;
53875;SDS011;39789;53.216;5.624;2024-03-02T00:10:59;5.85;;;2.63;;
53875;SDS011;39789;53.216;5.624;2024-03-02T00:15:55;3.92;;;2.90;;
53875;SDS011;39789;53.216;5.624;2024-03-02T00:18:27;3.75;;;3.35;;
53875;SDS011;39789;53.216;5.624;2024-03-02T00:20:56;4.03;;;3.10;;
53875;SDS011;39789;53.216;5.624;2024-03-02T00:23:23;4.38;;;2.90;;
53875;SDS011;39789;53.216;5.624;2024-03-02T00:25:53;3.00;;;2.75;;
53875;SDS011;39789;53.216;5.624;2024-03-02T00:28:20;6.88;;;3.20;;
53875;SDS011;39789;53.216;5.624;2024-03-02T00:30:51;4.18;;;3.05;;
53875;SDS011;39789;53.216;5.624;2024-03-02T00:33:20;3.70;;;2.92;;
53875;SDS011;39789;53.216;5.624;2024-03-02T00:35:47;3.72;;;2.70;;
53875;SDS011;39789;53.216;5.624;2024-03-02T00:38:14;3.15;;;2.83;;
53875;SDS011;39789;53.216;5.624;2024-03-02T00:40:41;5.30;;;3.47;;
53875;SDS011;39789;53.216;5.624;2024-03-02T00:46:00;4.22;;;3.05;;
53875;SDS011;39789;53.216;5.624;2024-03-02T00:48:26;5.25;;;3.65;;
53875;SDS011;39789;53.216;5.624;2024-03-02T00:50:52;4.38;;;3.40;;
53875;SDS011;39789;53.216;5.624;2024-03-02T00:53:18;4.38;;;3.50;;
53875;SDS011;39789;53.216;5.624;2024-03-02T00:55:50;4.68;;;3.63;;
53875;SDS011;39789;53.216;5.624;2024-03-02T00:58:16;5.18;;;3.28;;
53875;SDS011;39789;53.216;5.624;2024-03-02T01:00:42;5.15;;;3.88;;
53875;SDS011;39789;53.216;5.624;2024-03-02T01:03:07;4.65;;;3.45;;
53875;SDS011;39789;53.216;5.624;2024-03-02T01:05:33;3.55;;;3.25;;
53875;SDS011;39789;53.216;5.624;2024-03-02T01:08:00;7.28;;;3.28;;
53875;SDS011;39789;53.216;5.624;2024-03-02T01:10:25;5.80;;;3.13;;
53875;SDS011;39789;53.216;5.624;2024-03-02T01:12:51;5.22;;;3.53;;
53875;SDS011;39789;53.216;5.624;2024-03-02T01:15:17;3.67;;;3.15;;
53875;SDS011;39789;53.216;5.624;2024-03-02T01:17:42;3.42;;;3.00;;
53875;SDS011;39789;53.216;5.624;2024-03-02T01:20:08;4.70;;;2.80;;
53875;SDS011;39789;53.216;5.624;2024-03-02T01:22:34;3.80;;;2.80;;
53875;SDS011;39789;53.216;5.624;2024-03-02T01:25:01;3.90;;;3.15;;
53875;SDS011;39789;53.216;5.624;2024-03-02T01:27:27;4.05;;;2.95;;
53875;SDS011;39789;53.216;5.624;2024-03-02T01:29:53;3.58;;;2.30;;
53875;SDS011;39789;53.216;5.624;2024-03-02T01:32:19;3.35;;;2.45;;
53875;SDS011;39789;53.216;5.624;2024-03-02T01:34:45;5.38;;;2.88;;
53875;SDS011;39789;53.216;5.624;2024-03-02T01:37:11;4.68;;;2.40;;
53875;SDS011;39789;53.216;5.624;2024-03-02T01:39:37;3.70;;;2.55;;
53875;SDS011;39789;53.216;5.624;2024-03-02T01:42:02;3.72;;;2.50;;
53875;SDS011;39789;53.216;5.624;2024-03-02T01:44:28;2.97;;;2.38;;
53875;SDS011;39789;53.216;5.624;2024-03-02T01:46:54;3.20;;;2.55;;
53875;SDS011;39789;53.216;5.624;2024-03-02T01:49:20;4.00;;;2.78;;
53875;SDS011;39789;53.216;5.624;2024-03-02T01:51:45;5.60;;;2.40;;
53875;SDS011;39789;53.216;5.624;2024-03-02T01:54:11;3.63;;;2.67;;
53875;SDS011;39789;53.216;5.624;2024-03-02T01:56:37;3.75;;;2.50;;
53875;SDS011;39789;53.216;5.624;2024-03-02T01:59:03;4.03;;;2.28;;
53875;SDS011;39789;53.216;5.624;2024-03-02T02:01:29;4.38;;;2.50;;
53875;SDS011;39789;53.216;5.624;2024-03-02T02:03:56;3.00;;;2.08;;
53875;SDS011;39789;53.216;5.624;2024-03-02T02:06:22;4.40;;;2.67;;
53875;SDS011;39789;53.216;5.624;2024-03-02T02:08:47;4.72;;;2.80;;
53875;SDS011;39789;53.216;5.624;2024-03-02T02:11:16;2.78;;;2.25;;
53875;SDS011;39789;53.216;5.624;2024-03-02T02:13:42;4.78;;;2.40;;
53875;SDS011;39789;53.216;5.624;2024-03-02T02:16:08;2.72;;;2.20;;
53875;SDS011;39789;53.216;5.624;2024-03-02T02:18:34;2.28;;;2.08;;
53875;SDS011;39789;53.216;5.624;2024-03-02T02:21:01;4.60;;;2.65;;
53875;SDS011;39789;53.216;5.624;2024-03-02T02:23:27;2.85;;;2.13;;
53875;SDS011;39789;53.216;5.624;2024-03-02T02:25:53;3.28;;;2.33;;
53875;SDS011;39789;53.216;5.624;2024-03-02T02:28:18;4.20;;;2.47;;
53875;SDS011;39789;53.216;5.624;2024-03-02T02:30:44;2.28;;;2.03;;
53875;SDS011;39789;53.216;5.624;2024-03-02T02:33:10;2.75;;;2.13;;
53875;SDS011;39789;53.216;5.624;2024-03-02T02:35:35;4.22;;;2.67;;
53875;SDS011;39789;53.216;5.624;2024-03-02T02:38:01;4.43;;;2.45;;
53875;SDS011;39789;53.216;5.624;2024-03-02T02:40:28;3.92;;;2.72;;
53875;SDS011;39789;53.216;5.624;2024-03-02T02:42:57;2.35;;;2.15;;
53875;SDS011;39789;53.216;5.624;2024-03-02T02:45:24;3.78;;;2.35;;
53875;SDS011;39789;53.216;5.624;2024-03-02T02:47:50;2.75;;;2.05;;
53875;SDS011;39789;53.216;5.624;2024-03-02T02:50:15;3.30;;;2.30;;
53875;SDS011;39789;53.216;5.624;2024-03-02T02:52:41;5.22;;;2.40;;
53875;SDS011;39789;53.216;5.624;2024-03-02T02:55:11;3.03;;;2.40;;
53875;SDS011;39789;53.216;5.624;2024-03-02T02:57:41;2.50;;;2.20;;
53875;SDS011;39789;53.216;5.624;2024-03-02T03:00:14;2.47;;;1.90;;
53875;SDS011;39789;53.216;5.624;2024-03-02T03:02:44;2.92;;;1.90;;
53875;SDS011;39789;53.216;5.624;2024-03-02T03:05:13;5.00;;;2.10;;
53875;SDS011;39789;53.216;5.624;2024-03-02T03:07:39;2.72;;;1.83;;
53875;SDS011;39789;53.216;5.624;2024-03-02T03:10:06;2.75;;;2.05;;
53875;SDS011;39789;53.216;5.624;2024-03-02T03:12:33;2.72;;;1.90;;
53875;SDS011;39789;53.216;5.624;2024-03-02T03:15:00;3.22;;;2.33;;
53875;SDS011;39789;53.216;5.624;2024-03-02T03:17:26;2.90;;;2.00;;
53875;SDS011;39789;53.216;5.624;2024-03-02T03:19:54;3.15;;;1.80;;
53875;SDS011;39789;53.216;5.624;2024-03-02T03:22:20;1.83;;;1.73;;
53875;SDS011;39789;53.216;5.624;2024-03-02T03:24:46;3.25;;;1.80;;
53875;SDS011;39789;53.216;5.624;2024-03-02T03:27:11;4.63;;;1.83;;
53875;SDS011;39789;53.216;5.624;2024-03-02T03:29:37;1.77;;;1.40;;
53875;SDS011;39789;53.216;5.624;2024-03-02T03:32:03;1.75;;;1.10;;
53875;SDS011;39789;53.216;5.624;2024-03-02T03:34:32;1.63;;;1.38;;
53875;SDS011;39789;53.216;5.624;2024-03-02T03:36:58;3.55;;;1.00;;
53875;SDS011;39789;53.216;5.624;2024-03-02T03:39:23;1.25;;;1.15;;
53875;SDS011;39789;53.216;5.624;2024-03-02T03:41:49;1.42;;;1.00;;
53875;SDS011;39789;53.216;5.624;2024-03-02T03:44:15;1.75;;;1.08;;
53875;SDS011;39789;53.216;5.624;2024-03-02T03:46:40;0.80;;;0.80;;
53875;SDS011;39789;53.216;5.624;2024-03-02T03:49:06;2.33;;;1.13;;
53875;SDS011;39789;53.216;5.624;2024-03-02T03:51:33;1.08;;;1.00;;
53875;SDS011;39789;53.216;5.624;2024-03-02T03:53:59;0.90;;;0.90;;
53875;SDS011;39789;53.216;5.624;2024-03-02T03:56:24;1.17;;;1.05;;
53875;SDS011;39789;53.216;5.624;2024-03-02T03:58:50;1.30;;;1.20;;
53875;SDS011;39789;53.216;5.624;2024-03-02T04:01:16;0.90;;;0.90;;
53875;SDS011;39789;53.216;5.624;2024-03-02T04:03:41;1.38;;;1.10;;
53875;SDS011;39789;53.216;5.624;2024-03-02T04:06:07;1.10;;;1.00;;
53875;SDS011;39789;53.216;5.624;2024-03-02T04:08:33;1.00;;;1.00;;
53875;SDS011;39789;53.216;5.624;2024-03-02T04:10:58;0.95;;;0.95;;
53875;SDS011;39789;53.216;5.624;2024-03-02T04:13:24;1.20;;;1.10;;
53875;SDS011;39789;53.216;5.624;2024-03-02T04:15:50;1.20;;;1.10;;
53875;SDS011;39789;53.216;5.624;2024-03-02T04:18:15;1.17;;;1.08;;
53875;SDS011;39789;53.216;5.624;2024-03-02T04:20:41;0.95;;;0.95;;
53875;SDS011;39789;53.216;5.624;2024-03-02T04:23:07;1.00;;;1.00;;
53875;SDS011;39789;53.216;5.624;2024-03-02T04:25:33;2.72;;;1.15;;
53875;SDS011;39789;53.216;5.624;2024-03-02T04:27:59;1.27;;;0.98;;
53875;SDS011;39789;53.216;5.624;2024-03-02T04:30:24;0.88;;;0.88;;
53875;SDS011;39789;53.216;5.624;2024-03-02T04:32:50;0.90;;;0.90;;
53875;SDS011;39789;53.216;5.624;2024-03-02T04:35:16;0.88;;;0.88;;
53875;SDS011;39789;53.216;5.624;2024-03-02T04:37:41;2.28;;;1.15;;
53875;SDS011;39789;53.216;5.624;2024-03-02T04:40:07;0.90;;;0.90;;
53875;SDS011;39789;53.216;5.624;2024-03-02T04:42:34;1.38;;;0.88;;
53875;SDS011;39789;53.216;5.624;2024-03-02T04:45:00;2.63;;;1.00;;
53875;SDS011;39789;53.216;5.624;2024-03-02T04:47:26;1.90;;;1.00;;
53875;SDS011;39789;53.216;5.624;2024-03-02T04:49:52;0.70;;;0.70;;
53875;SDS011;39789;53.216;5.624;2024-03-02T04:52:18;0.90;;;0.90;;
53875;SDS011;39789;53.216;5.624;2024-03-02T04:54:44;0.73;;;0.73;;
53875;SDS011;39789;53.216;5.624;2024-03-02T04:57:27;0.70;;;0.70;;
53875;SDS011;39789;53.216;5.624;2024-03-02T04:59:53;1.33;;;0.90;;
53875;SDS011;39789;53.216;5.624;2024-03-02T05:02:19;0.80;;;0.80;;
53875;SDS011;39789;53.216;5.624;2024-03-02T05:04:44;1.05;;;0.77;;
53875;SDS011;39789;53.216;5.624;2024-03-02T05:07:10;0.80;;;0.80;;
53875;SDS011;39789;53.216;5.624;2024-03-02T05:09:36;0.90;;;0.90;;
53875;SDS011;39789;53.216;5.624;2024-03-02T05:12:02;2.30;;;0.90;;
53875;SDS011;39789;53.216;5.624;2024-03-02T05:14:47;1.00;;;1.00;;
53875;SDS011;39789;53.216;5.624;2024-03-02T05:17:13;0.93;;;0.70;;
53875;SDS011;39789;53.216;5.624;2024-03-02T05:19:39;1.15;;;1.00;;
53875;SDS011;39789;53.216;5.624;2024-03-02T05:22:04;1.30;;;0.88;;
53875;SDS011;39789;53.216;5.624;2024-03-02T05:24:30;1.08;;;0.82;;
53875;SDS011;39789;53.216;5.624;2024-03-02T05:26:56;0.90;;;0.75;;
53875;SDS011;39789;53.216;5.624;2024-03-02T05:29:22;2.00;;;1.13;;
53875;SDS011;39789;53.216;5.624;2024-03-02T05:31:48;1.00;;;1.00;;
53875;SDS011;39789;53.216;5.624;2024-03-02T05:34:14;1.30;;;1.20;;
53875;SDS011;39789;53.216;5.624;2024-03-02T05:36:39;1.98;;;1.15;;
53875;SDS011;39789;53.216;5.624;2024-03-02T05:39:05;1.63;;;1.00;;
53875;SDS011;39789;53.216;5.624;2024-03-02T05:41:34;1.10;;;1.00;;
53875;SDS011;39789;53.216;5.624;2024-03-02T05:44:00;1.73;;;1.13;;
53875;SDS011;39789;53.216;5.624;2024-03-02T05:46:26;1.98;;;1.17;;
53875;SDS011;39789;53.216;5.624;2024-03-02T05:48:52;1.48;;;1.38;;
53875;SDS011;39789;53.216;5.624;2024-03-02T05:51:18;1.25;;;1.10;;
53875;SDS011;39789;53.216;5.624;2024-03-02T05:53:44;1.20;;;1.00;;
53875;SDS011;39789;53.216;5.624;2024-03-02T05:56:10;1.02;;;1.00;;
53875;SDS011;39789;53.216;5.624;2024-03-02T05:58:37;3.40;;;1.20;;
53875;SDS011;39789;53.216;5.624;2024-03-02T06:01:15;2.40;;;1.17;;
53875;SDS011;39789;53.216;5.624;2024-03-02T06:03:40;1.48;;;1.30;;
53875;SDS011;39789;53.216;5.624;2024-03-02T06:06:06;1.55;;;1.38;;
53875;SDS011;39789;53.216;5.624;2024-03-02T06:08:32;2.95;;;1.40;;
53875;SDS011;39789;53.216;5.624;2024-03-02T06:10:58;2.33;;;1.42;;
53875;SDS011;39789;53.216;5.624;2024-03-02T06:13:23;1.42;;;1.25;;
53875;SDS011;39789;53.216;5.624;2024-03-02T06:15:50;1.67;;;1.38;;
53875;SDS011;39789;53.216;5.624;2024-03-02T06:18:16;2.63;;;1.33;;
53875;SDS011;39789;53.216;5.624;2024-03-02T06:20:41;2.20;;;1.33;;
53875;SDS011;39789;53.216;5.624;2024-03-02T06:23:07;1.58;;;1.27;;
53875;SDS011;39789;53.216;5.624;2024-03-02T06:25:33;2.80;;;1.27;;
53875;SDS011;39789;53.216;5.624;2024-03-02T06:27:59;1.38;;;1.20;;
53875;SDS011;39789;53.216;5.624;2024-03-02T06:30:24;1.95;;;1.45;;
53875;SDS011;39789;53.216;5.624;2024-03-02T06:32:50;1.75;;;1.30;;
53875;SDS011;39789;53.216;5.624;2024-03-02T06:35:15;1.23;;;1.10;;
53875;SDS011;39789;53.216;5.624;2024-03-02T06:37:41;2.95;;;1.25;;
53875;SDS011;39789;53.216;5.624;2024-03-02T06:40:07;2.30;;;1.15;;
53875;SDS011;39789;53.216;5.624;2024-03-02T06:42:33;3.92;;;1.30;;
53875;SDS011;39789;53.216;5.624;2024-03-02T06:44:59;8.50;;;1.40;;
53875;SDS011;39789;53.216;5.624;2024-03-02T06:47:25;1.98;;;1.30;;
53875;SDS011;39789;53.216;5.624;2024-03-02T06:49:51;2.17;;;1.42;;
53875;SDS011;39789;53.216;5.624;2024-03-02T06:52:18;1.23;;;1.13;;
53875;SDS011;39789;53.216;5.624;2024-03-02T06:54:43;2.20;;;1.10;;
53875;SDS011;39789;53.216;5.624;2024-03-02T06:57:09;2.03;;;1.50;;
53875;SDS011;39789;53.216;5.624;2024-03-02T06:59:35;2.60;;;1.45;;
53875;SDS011;39789;53.216;5.624;2024-03-02T07:02:00;5.35;;;1.38;;
53875;SDS011;39789;53.216;5.624;2024-03-02T07:04:27;1.20;;;1.10;;
53875;SDS011;39789;53.216;5.624;2024-03-02T07:06:52;2.17;;;1.30;;
53875;SDS011;39789;53.216;5.624;2024-03-02T07:09:18;2.90;;;1.40;;
53875;SDS011;39789;53.216;5.624;2024-03-02T07:11:47;4.05;;;1.58;;
53875;SDS011;39789;53.216;5.624;2024-03-02T07:14:13;5.60;;;1.52;;
53875;SDS011;39789;53.216;5.624;2024-03-02T07:16:39;1.90;;;1.40;;
53875;SDS011;39789;53.216;5.624;2024-03-02T07:19:05;3.15;;;1.58;;
53875;SDS011;39789;53.216;5.624;2024-03-02T07:21:31;2.20;;;1.30;;
53875;SDS011;39789;53.216;5.624;2024-03-02T07:24:00;2.30;;;1.40;;
53875;SDS011;39789;53.216;5.624;2024-03-02T07:26:29;1.58;;;1.40;;
53875;SDS011;39789;53.216;5.624;2024-03-02T07:28:56;2.38;;;1.50;;
53875;SDS011;39789;53.216;5.624;2024-03-02T07:31:22;2.15;;;1.60;;
53875;SDS011;39789;53.216;5.624;2024-03-02T07:33:48;2.22;;;1.35;;
53875;SDS011;39789;53.216;5.624;2024-03-02T07:36:13;3.78;;;1.60;;
53875;SDS011;39789;53.216;5.624;2024-03-02T07:38:40;1.55;;;1.45;;
53875;SDS011;39789;53.216;5.624;2024-03-02T07:41:06;1.50;;;1.40;;
53875;SDS011;39789;53.216;5.624;2024-03-02T07:43:34;2.72;;;1.70;;
53875;SDS011;39789;53.216;5.624;2024-03-02T07:45:59;2.70;;;1.58;;
53875;SDS011;39789;53.216;5.624;2024-03-02T07:48:25;1.58;;;1.38;;
53875;SDS011;39789;53.216;5.624;2024-03-02T07:50:52;1.90;;;1.63;;
53875;SDS011;39789;53.216;5.624;2024-03-02T07:53:17;3.10;;;1.80;;
53875;SDS011;39789;53.216;5.624;2024-03-02T07:55:43;2.05;;;1.67;;
53875;SDS011;39789;53.216;5.624;2024-03-02T07:58:09;2.10;;;1.52;;
53875;SDS011;39789;53.216;5.624;2024-03-02T08:00:36;2.38;;;1.75;;
53875;SDS011;39789;53.216;5.624;2024-03-02T08:03:04;2.53;;;1.60;;
53875;SDS011;39789;53.216;5.624;2024-03-02T08:05:30;3.15;;;1.63;;
53875;SDS011;39789;53.216;5.624;2024-03-02T08:07:56;1.73;;;1.58;;
53875;SDS011;39789;53.216;5.624;2024-03-02T08:10:21;2.33;;;1.80;;
53875;SDS011;39789;53.216;5.624;2024-03-02T08:12:47;2.33;;;1.40;;
53875;SDS011;39789;53.216;5.624;2024-03-02T08:15:13;3.03;;;1.75;;
53875;SDS011;39789;53.216;5.624;2024-03-02T08:17:39;2.70;;;1.67;;
53875;SDS011;39789;53.216;5.624;2024-03-02T08:22:39;5.22;;;1.60;;
53875;SDS011;39789;53.216;5.624;2024-03-02T08:25:05;3.42;;;1.30;;
53875;SDS011;39789;53.216;5.624;2024-03-02T08:27:31;2.10;;;1.35;;
53875;SDS011;39789;53.216;5.624;2024-03-02T08:29:57;3.55;;;1.33;;
53875;SDS011;39789;53.216;5.624;2024-03-02T08:32:23;3.00;;;1.38;;
53875;SDS011;39789;53.216;5.624;2024-03-02T08:34:48;4.07;;;1.20;;
53875;SDS011;39789;53.216;5.624;2024-03-02T08:37:14;3.63;;;1.05;;
53875;SDS011;39789;53.216;5.624;2024-03-02T08:39:40;3.63;;;1.58;;
53875;SDS011;39789;53.216;5.624;2024-03-02T08:42:06;1.98;;;1.25;;
53875;SDS011;39789;53.216;5.624;2024-03-02T08:44:31;4.57;;;1.17;;
53875;SDS011;39789;53.216;5.624;2024-03-02T08:46:58;3.33;;;1.40;;
53875;SDS011;39789;53.216;5.624;2024-03-02T08:49:24;2.78;;;1.48;;
53875;SDS011;39789;53.216;5.624;2024-03-02T08:51:50;2.42;;;1.20;;
53875;SDS011;39789;53.216;5.624;2024-03-02T08:54:22;2.33;;;1.30;;
53875;SDS011;39789;53.216;5.624;2024-03-02T08:56:48;2.33;;;1.45;;
53875;SDS011;39789;53.216;5.624;2024-03-02T08:59:17;2.25;;;1.20;;
53875;SDS011;39789;53.216;5.624;2024-03-02T09:01:43;2.33;;;1.10;;
53875;SDS011;39789;53.216;5.624;2024-03-02T09:04:10;2.63;;;1.30;;
53875;SDS011;39789;53.216;5.624;2024-03-02T09:06:35;3.45;;;1.25;;
53875;SDS011;39789;53.216;5.624;2024-03-02T09:09:01;1.92;;;1.38;;
53875;SDS011;39789;53.216;5.624;2024-03-02T09:11:27;3.85;;;1.42;;
53875;SDS011;39789;53.216;5.624;2024-03-02T09:13:53;4.65;;;1.20;;
53875;SDS011;39789;53.216;5.624;2024-03-02T09:16:21;2.95;;;1.10;;
53875;SDS011;39789;53.216;5.624;2024-03-02T09:18:46;2.15;;;1.40;;
53875;SDS011;39789;53.216;5.624;2024-03-02T09:21:12;3.55;;;1.65;;
53875;SDS011;39789;53.216;5.624;2024-03-02T09:23:38;3.72;;;1.25;;
53875;SDS011;39789;53.216;5.624;2024-03-02T09:26:05;3.90;;;2.42;;
53875;SDS011;39789;53.216;5.624;2024-03-02T09:28:31;3.13;;;1.67;;
53875;SDS011;39789;53.216;5.624;2024-03-02T09:30:56;2.15;;;1.10;;
53875;SDS011;39789;53.216;5.624;2024-03-02T09:33:22;2.90;;;1.40;;
53875;SDS011;39789;53.216;5.624;2024-03-02T09:35:48;3.65;;;1.30;;
53875;SDS011;39789;53.216;5.624;2024-03-02T09:38:14;4.65;;;2.10;;
53875;SDS011;39789;53.216;5.624;2024-03-02T09:40:41;3.10;;;1.83;;
53875;SDS011;39789;53.216;5.624;2024-03-02T09:43:07;3.13;;;1.23;;
53875;SDS011;39789;53.216;5.624;2024-03-02T09:45:33;5.57;;;1.70;;
53875;SDS011;39789;53.216;5.624;2024-03-02T09:47:59;4.35;;;1.30;;
53875;SDS011;39789;53.216;5.624;2024-03-02T09:50:25;2.58;;;1.15;;
53875;SDS011;39789;53.216;5.624;2024-03-02T09:52:50;1.65;;;1.23;;
53875;SDS011;39789;53.216;5.624;2024-03-02T09:55:18;4.97;;;1.30;;
53875;SDS011;39789;53.216;5.624;2024-03-02T09:57:45;3.40;;;1.20;;
53875;SDS011;39789;53.216;5.624;2024-03-02T10:00:11;1.98;;;1.20;;
53875;SDS011;39789;53.216;5.624;2024-03-02T10:02:40;4.05;;;1.25;;
53875;SDS011;39789;53.216;5.624;2024-03-02T10:05:07;2.67;;;1.30;;
53875;SDS011;39789;53.216;5.624;2024-03-02T10:07:39;2.42;;;1.20;;
53875;SDS011;39789;53.216;5.624;2024-03-02T10:10:12;2.13;;;1.00;;
53875;SDS011;39789;53.216;5.624;2024-03-02T10:12:39;2.73;;;1.30;;
53875;SDS011;39789;53.216;5.624;2024-03-02T10:15:05;1.65;;;1.20;;
53875;SDS011;39789;53.216;5.624;2024-03-02T10:17:31;3.25;;;1.23;;
53875;SDS011;39789;53.216;5.624;2024-03-02T10:19:57;4.22;;;1.42;;
53875;SDS011;39789;53.216;5.624;2024-03-02T10:22:23;5.15;;;1.30;;
53875;SDS011;39789;53.216;5.624;2024-03-02T10:24:48;3.40;;;1.60;;
53875;SDS011;39789;53.216;5.624;2024-03-02T10:27:15;5.88;;;1.65;;
53875;SDS011;39789;53.216;5.624;2024-03-02T10:32:27;1.95;;;1.25;;
53875;SDS011;39789;53.216;5.624;2024-03-02T10:34:53;4.40;;;1.55;;
53875;SDS011;39789;53.216;5.624;2024-03-02T10:37:20;5.32;;;1.75;;
53875;SDS011;39789;53.216;5.624;2024-03-02T10:39:46;1.67;;;1.00;;
53875;SDS011;39789;53.216;5.624;2024-03-02T10:42:12;1.42;;;1.00;;
53875;SDS011;39789;53.216;5.624;2024-03-02T10:44:40;2.90;;;1.27;;
53875;SDS011;39789;53.216;5.624;2024-03-02T10:47:08;3.45;;;1.77;;
53875;SDS011;39789;53.216;5.624;2024-03-02T10:49:37;5.47;;;1.73;;
53875;SDS011;39789;53.216;5.624;2024-03-02T10:52:06;3.65;;;1.40;;
53875;SDS011;39789;53.216;5.624;2024-03-02T10:54:34;4.22;;;1.40;;
53875;SDS011;39789;53.216;5.624;2024-03-02T10:57:04;2.92;;;1.40;;
53875;SDS011;39789;53.216;5.624;2024-03-02T10:59:35;3.55;;;1.92;;
53875;SDS011;39789;53.216;5.624;2024-03-02T11:02:04;2.15;;;1.58;;
53875;SDS011;39789;53.216;5.624;2024-03-02T11:04:33;3.10;;;1.27;;
53875;SDS011;39789;53.216;5.624;2024-03-02T11:07:02;5.57;;;2.33;;
53875;SDS011;39789;53.216;5.624;2024-03-02T11:09:33;2.17;;;1.30;;
53875;SDS011;39789;53.216;5.624;2024-03-02T11:12:06;2.80;;;1.30;;
53875;SDS011;39789;53.216;5.624;2024-03-02T11:14:40;2.40;;;1.25;;
53875;SDS011;39789;53.216;5.624;2024-03-02T11:17:10;2.58;;;1.60;;
53875;SDS011;39789;53.216;5.624;2024-03-02T11:19:38;2.95;;;1.25;;
53875;SDS011;39789;53.216;5.624;2024-03-02T11:22:05;2.35;;;1.20;;
53875;SDS011;39789;53.216;5.624;2024-03-02T11:24:31;3.75;;;1.70;;
53875;SDS011;39789;53.216;5.624;2024-03-02T11:26:58;5.07;;;1.52;;
53875;SDS011;39789;53.216;5.624;2024-03-02T11:32:05;5.15;;;1.30;;
53875;SDS011;39789;53.216;5.624;2024-03-02T11:34:42;2.20;;;1.30;;
53875;SDS011;39789;53.216;5.624;2024-03-02T11:37:11;6.70;;;1.88;;
53875;SDS011;39789;53.216;5.624;2024-03-02T11:39:39;2.22;;;1.10;;
53875;SDS011;39789;53.216;5.624;2024-03-02T11:42:05;4.38;;;1.50;;
53875;SDS011;39789;53.216;5.624;2024-03-02T11:44:34;3.40;;;1.20;;
53875;SDS011;39789;53.216;5.624;2024-03-02T11:47:02;3.03;;;1.30;;
53875;SDS011;39789;53.216;5.624;2024-03-02T11:49:39;3.17;;;1.10;;
53875;SDS011;39789;53.216;5.624;2024-03-02T11:52:14;4.65;;;1.25;;
53875;SDS011;39789;53.216;5.624;2024-03-02T11:54:42;2.47;;;1.10;;
53875;SDS011;39789;53.216;5.624;2024-03-02T11:57:12;2.97;;;1.40;;
53875;SDS011;39789;53.216;5.624;2024-03-02T11:59:39;2.30;;;0.90;;
53875;SDS011;39789;53.216;5.624;2024-03-02T12:02:06;3.70;;;1.10;;
53875;SDS011;39789;53.216;5.624;2024-03-02T12:04:32;4.50;;;1.30;;
53875;SDS011;39789;53.216;5.624;2024-03-02T12:06:58;2.63;;;1.20;;
53875;SDS011;39789;53.216;5.624;2024-03-02T12:09:25;2.53;;;1.20;;
53875;SDS011;39789;53.216;5.624;2024-03-02T12:12:05;4.40;;;1.08;;
53875;SDS011;39789;53.216;5.624;2024-03-02T12:14:32;4.00;;;1.20;;
53875;SDS011;39789;53.216;5.624;2024-03-02T12:16:59;3.28;;;1.42;;
53875;SDS011;39789;53.216;5.624;2024-03-02T12:19:26;5.10;;;1.45;;
53875;SDS011;39789;53.216;5.624;2024-03-02T12:21:55;4.43;;;1.35;;
53875;SDS011;39789;53.216;5.624;2024-03-02T12:24:22;4.53;;;1.40;;
53875;SDS011;39789;53.216;5.624;2024-03-02T12:26:49;3.88;;;1.10;;
53875;SDS011;39789;53.216;5.624;2024-03-02T12:29:15;4.05;;;1.25;;
53875;SDS011;39789;53.216;5.624;2024-03-02T12:31:44;3.97;;;1.52;;
53875;SDS011;39789;53.216;5.624;2024-03-02T12:34:11;4.45;;;1.30;;
53875;SDS011;39789;53.216;5.624;2024-03-02T12:36:42;3.10;;;1.13;;
53875;SDS011;39789;53.216;5.624;2024-03-02T12:39:08;3.58;;;1.20;;
53875;SDS011;39789;53.216;5.624;2024-03-02T12:41:38;2.47;;;1.35;;
53875;SDS011;39789;53.216;5.624;2024-03-02T12:44:04;4.90;;;1.50;;
53875;SDS011;39789;53.216;5.624;2024-03-02T12:46:31;3.15;;;1.10;;
53875;SDS011;39789;53.216;5.624;2024-03-02T12:48:57;4.15;;;1.20;;
53875;SDS011;39789;53.216;5.624;2024-03-02T12:51:26;3.22;;;1.27;;
53875;SDS011;39789;53.216;5.624;2024-03-02T12:53:55;4.18;;;1.40;;
53875;SDS011;39789;53.216;5.624;2024-03-02T12:56:23;3.33;;;1.10;;
53875;SDS011;39789;53.216;5.624;2024-03-02T12:58:53;4.07;;;1.20;;
53875;SDS011;39789;53.216;5.624;2024-03-02T13:01:20;1.92;;;1.15;;
53875;SDS011;39789;53.216;5.624;2024-03-02T13:03:48;3.72;;;1.30;;
53875;SDS011;39789;53.216;5.624;2024-03-02T13:06:16;7.05;;;1.23;;
53875;SDS011;39789;53.216;5.624;2024-03-02T13:08:42;1.30;;;0.95;;
53875;SDS011;39789;53.216;5.624;2024-03-02T13:11:08;3.40;;;1.15;;
53875;SDS011;39789;53.216;5.624;2024-03-02T13:13:34;1.75;;;0.93;;
53875;SDS011;39789;53.216;5.624;2024-03-02T13:16:00;2.00;;;1.00;;
53875;SDS011;39789;53.216;5.624;2024-03-02T13:18:26;4.70;;;1.42;;
53875;SDS011;39789;53.216;5.624;2024-03-02T13:20:53;4.47;;;1.20;;
53875;SDS011;39789;53.216;5.624;2024-03-02T13:23:21;2.97;;;1.38;;
53875;SDS011;39789;53.216;5.624;2024-03-02T13:25:46;2.80;;;1.00;;
53875;SDS011;39789;53.216;5.624;2024-03-02T13:28:12;1.75;;;1.00;;
53875;SDS011;39789;53.216;5.624;2024-03-02T13:30:38;2.13;;;1.20;;
53875;SDS011;39789;53.216;5.624;2024-03-02T13:33:04;2.40;;;1.17;;
53875;SDS011;39789;53.216;5.624;2024-03-02T13:35:30;3.63;;;1.67;;
53875;SDS011;39789;53.216;5.624;2024-03-02T13:37:56;4.60;;;1.70;;
53875;SDS011;39789;53.216;5.624;2024-03-02T13:40:21;3.85;;;1.58;;
53875;SDS011;39789;53.216;5.624;2024-03-02T13:42:48;2.47;;;1.17;;
53875;SDS011;39789;53.216;5.624;2024-03-02T13:45:16;2.85;;;1.48;;
53875;SDS011;39789;53.216;5.624;2024-03-02T13:47:43;5.45;;;1.77;;
53875;SDS011;39789;53.216;5.624;2024-03-02T13:50:09;4.55;;;1.67;;
53875;SDS011;39789;53.216;5.624;2024-03-02T13:52:35;4.28;;;1.60;;
53875;SDS011;39789;53.216;5.624;2024-03-02T13:55:01;6.88;;;2.10;;
53875;SDS011;39789;53.216;5.624;2024-03-02T13:57:27;5.50;;;1.75;;
53875;SDS011;39789;53.216;5.624;2024-03-02T13:59:53;4.28;;;1.90;;
53875;SDS011;39789;53.216;5.624;2024-03-02T14:02:19;3.40;;;1.83;;
53875;SDS011;39789;53.216;5.624;2024-03-02T14:04:45;3.38;;;1.85;;
53875;SDS011;39789;53.216;5.624;2024-03-02T14:07:13;6.38;;;2.00;;
53875;SDS011;39789;53.216;5.624;2024-03-02T14:09:39;5.25;;;1.70;;
53875;SDS011;39789;53.216;5.624;2024-03-02T14:12:05;4.63;;;1.85;;
53875;SDS011;39789;53.216;5.624;2024-03-02T14:14:31;1.95;;;1.27;;
53875;SDS011;39789;53.216;5.624;2024-03-02T14:16:56;3.55;;;1.65;;
53875;SDS011;39789;53.216;5.624;2024-03-02T14:19:25;6.85;;;1.85;;
53875;SDS011;39789;53.216;5.624;2024-03-02T14:21:52;4.10;;;1.73;;
53875;SDS011;39789;53.216;5.624;2024-03-02T14:24:17;7.13;;;2.03;;
53875;SDS011;39789;53.216;5.624;2024-03-02T14:26:43;3.28;;;2.13;;
53875;SDS011;39789;53.216;5.624;2024-03-02T14:29:10;4.40;;;1.75;;
53875;SDS011;39789;53.216;5.624;2024-03-02T14:31:36;3.20;;;1.85;;
53875;SDS011;39789;53.216;5.624;2024-03-02T14:34:02;5.18;;;1.80;;
53875;SDS011;39789;53.216;5.624;2024-03-02T14:36:28;3.53;;;1.65;;
53875;SDS011;39789;53.216;5.624;2024-03-02T14:38:54;3.85;;;1.27;;
53875;SDS011;39789;53.216;5.624;2024-03-02T14:41:20;2.42;;;1.40;;
53875;SDS011;39789;53.216;5.624;2024-03-02T14:43:46;2.78;;;1.10;;
53875;SDS011;39789;53.216;5.624;2024-03-02T14:46:11;2.63;;;1.35;;
53875;SDS011;39789;53.216;5.624;2024-03-02T14:48:37;2.85;;;1.48;;
53875;SDS011;39789;53.216;5.624;2024-03-02T14:51:04;2.30;;;1.15;;
53875;SDS011;39789;53.216;5.624;2024-03-02T14:53:30;2.15;;;1.13;;
53875;SDS011;39789;53.216;5.624;2024-03-02T14:55:55;4.28;;;1.15;;
53875;SDS011;39789;53.216;5.624;2024-03-02T14:58:21;1.60;;;1.20;;